sensor_id;sensor_type;location;lat;lon;timestamp;P1;durP1;ratioP1;P2;durP2;ratioP2
72926;SDS011;61071;51.618;19.388;2022-10-13T00:00:49;69.20;;;29.50;;
72926;SDS011;61071;51.618;19.388;2022-10-13T00:03:15;68.28;;;28.67;;
72926;SDS011;61071;51.618;19.388;2022-10-13T00:05:42;65.65;;;31.58;;
72926;SDS011;61071;51.618;19.388;2022-10-13T00:08:12;80.18;;;31.98;;
72926;SDS011;61071;51.618;19.388;2022-10-13T00:10:42;72.85;;;29.58;;
72926;SDS011;61071;51.618;19.388;2022-10-13T00:13:09;70.50;;;31.90;;
72926;SDS011;61071;51.618;19.388;2022-10-13T00:15:38;67.68;;;29.50;;
72926;SDS011;61071;51.618;19.388;2022-10-13T00:18:07;71.68;;;29.83;;
72926;SDS011;61071;51.618;19.388;2022-10-13T00:20:33;73.32;;;28.83;;
72926;SDS011;61071;51.618;19.388;2022-10-13T00:23:00;97.88;;;39.22;;
72926;SDS011;61071;51.618;19.388;2022-10-13T00:25:26;92.28;;;37.50;;
72926;SDS011;61071;51.618;19.388;2022-10-13T00:27:51;150.85;;;50.38;;
72926;SDS011;61071;51.618;19.388;2022-10-13T00:30:17;154.45;;;57.60;;
72926;SDS011;61071;51.618;19.388;2022-10-13T00:32:43;166.32;;;60.55;;
72926;SDS011;61071;51.618;19.388;2022-10-13T00:35:09;122.50;;;49.83;;
72926;SDS011;61071;51.618;19.388;2022-10-13T00:37:35;105.00;;;45.33;;
72926;SDS011;61071;51.618;19.388;2022-10-13T00:40:00;88.88;;;39.78;;
72926;SDS011;61071;51.618;19.388;2022-10-13T00:42:26;91.93;;;34.88;;
72926;SDS011;61071;51.618;19.388;2022-10-13T00:47:56;68.13;;;29.40;;
72926;SDS011;61071;51.618;19.388;2022-10-13T00:50:31;72.40;;;30.10;;
72926;SDS011;61071;51.618;19.388;2022-10-13T00:53:02;78.53;;;33.75;;
72926;SDS011;61071;51.618;19.388;2022-10-13T00:55:30;74.45;;;32.60;;
72926;SDS011;61071;51.618;19.388;2022-10-13T00:57:59;79.80;;;31.23;;
72926;SDS011;61071;51.618;19.388;2022-10-13T01:00:30;78.53;;;31.17;;
72926;SDS011;61071;51.618;19.388;2022-10-13T01:02:58;74.53;;;33.03;;
72926;SDS011;61071;51.618;19.388;2022-10-13T01:05:25;76.97;;;31.92;;
72926;SDS011;61071;51.618;19.388;2022-10-13T01:07:51;71.90;;;32.53;;
72926;SDS011;61071;51.618;19.388;2022-10-13T01:16:46;94.60;;;41.15;;
72926;SDS011;61071;51.618;19.388;2022-10-13T01:19:34;88.05;;;35.60;;
72926;SDS011;61071;51.618;19.388;2022-10-13T01:31:45;70.53;;;32.40;;
72926;SDS011;61071;51.618;19.388;2022-10-13T01:34:29;74.30;;;35.35;;
72926;SDS011;61071;51.618;19.388;2022-10-13T01:37:06;84.75;;;36.40;;
72926;SDS011;61071;51.618;19.388;2022-10-13T01:42:48;83.60;;;35.42;;
72926;SDS011;61071;51.618;19.388;2022-10-13T01:45:20;77.78;;;34.70;;
72926;SDS011;61071;51.618;19.388;2022-10-13T01:47:54;73.13;;;34.05;;
72926;SDS011;61071;51.618;19.388;2022-10-13T01:50:23;84.90;;;37.42;;
72926;SDS011;61071;51.618;19.388;2022-10-13T01:52:50;70.22;;;34.22;;
72926;SDS011;61071;51.618;19.388;2022-10-13T01:55:17;71.28;;;34.20;;
72926;SDS011;61071;51.618;19.388;2022-10-13T01:57:43;80.25;;;35.42;;
72926;SDS011;61071;51.618;19.388;2022-10-13T02:05:24;71.10;;;30.50;;
72926;SDS011;61071;51.618;19.388;2022-10-13T02:13:52;54.58;;;24.40;;
72926;SDS011;61071;51.618;19.388;2022-10-13T02:16:34;51.25;;;24.10;;
72926;SDS011;61071;51.618;19.388;2022-10-13T02:19:04;47.00;;;22.50;;
72926;SDS011;61071;51.618;19.388;2022-10-13T02:21:33;54.05;;;26.98;;
72926;SDS011;61071;51.618;19.388;2022-10-13T02:24:01;47.85;;;22.98;;
72926;SDS011;61071;51.618;19.388;2022-10-13T02:26:29;41.22;;;21.35;;
72926;SDS011;61071;51.618;19.388;2022-10-13T02:28:57;48.88;;;25.63;;
72926;SDS011;61071;51.618;19.388;2022-10-13T02:31:23;49.72;;;24.15;;
72926;SDS011;61071;51.618;19.388;2022-10-13T02:33:49;56.30;;;26.23;;
72926;SDS011;61071;51.618;19.388;2022-10-13T02:36:14;53.75;;;24.00;;
72926;SDS011;61071;51.618;19.388;2022-10-13T02:38:40;47.78;;;23.63;;
72926;SDS011;61071;51.618;19.388;2022-10-13T02:41:06;46.72;;;23.40;;
72926;SDS011;61071;51.618;19.388;2022-10-13T02:43:32;43.55;;;17.95;;
72926;SDS011;61071;51.618;19.388;2022-10-13T02:46:01;43.38;;;18.58;;
72926;SDS011;61071;51.618;19.388;2022-10-13T02:48:27;42.70;;;19.35;;
72926;SDS011;61071;51.618;19.388;2022-10-13T02:50:53;43.75;;;20.52;;
72926;SDS011;61071;51.618;19.388;2022-10-13T02:53:18;41.83;;;20.27;;
72926;SDS011;61071;51.618;19.388;2022-10-13T02:55:44;57.30;;;27.25;;
72926;SDS011;61071;51.618;19.388;2022-10-13T02:58:10;50.33;;;22.08;;
72926;SDS011;61071;51.618;19.388;2022-10-13T03:00:35;50.33;;;23.75;;
72926;SDS011;61071;51.618;19.388;2022-10-13T03:03:03;46.17;;;21.73;;
72926;SDS011;61071;51.618;19.388;2022-10-13T03:05:30;44.65;;;21.60;;
72926;SDS011;61071;51.618;19.388;2022-10-13T03:07:55;50.10;;;21.00;;
72926;SDS011;61071;51.618;19.388;2022-10-13T03:10:21;43.72;;;21.67;;
72926;SDS011;61071;51.618;19.388;2022-10-13T03:12:46;43.10;;;22.08;;
72926;SDS011;61071;51.618;19.388;2022-10-13T03:15:12;45.00;;;21.33;;
72926;SDS011;61071;51.618;19.388;2022-10-13T03:17:38;48.13;;;21.48;;
72926;SDS011;61071;51.618;19.388;2022-10-13T03:20:04;45.08;;;19.67;;
72926;SDS011;61071;51.618;19.388;2022-10-13T03:22:31;40.65;;;21.48;;
72926;SDS011;61071;51.618;19.388;2022-10-13T03:24:57;45.45;;;21.67;;
72926;SDS011;61071;51.618;19.388;2022-10-13T03:27:23;51.88;;;22.38;;
72926;SDS011;61071;51.618;19.388;2022-10-13T03:29:49;50.63;;;19.88;;
72926;SDS011;61071;51.618;19.388;2022-10-13T03:32:14;37.60;;;19.67;;
72926;SDS011;61071;51.618;19.388;2022-10-13T03:34:40;51.15;;;20.88;;
72926;SDS011;61071;51.618;19.388;2022-10-13T03:37:07;47.15;;;20.38;;
72926;SDS011;61071;51.618;19.388;2022-10-13T03:39:33;45.55;;;19.73;;
72926;SDS011;61071;51.618;19.388;2022-10-13T03:41:58;34.63;;;18.38;;
72926;SDS011;61071;51.618;19.388;2022-10-13T03:44:25;44.95;;;19.88;;
72926;SDS011;61071;51.618;19.388;2022-10-13T03:46:50;43.60;;;19.52;;
72926;SDS011;61071;51.618;19.388;2022-10-13T03:49:16;44.45;;;18.73;;
72926;SDS011;61071;51.618;19.388;2022-10-13T03:51:42;36.58;;;18.95;;
72926;SDS011;61071;51.618;19.388;2022-10-13T03:54:12;38.97;;;19.13;;
72926;SDS011;61071;51.618;19.388;2022-10-13T03:56:38;39.85;;;20.67;;
72926;SDS011;61071;51.618;19.388;2022-10-13T03:59:05;44.45;;;19.13;;
72926;SDS011;61071;51.618;19.388;2022-10-13T04:01:31;41.60;;;19.67;;
72926;SDS011;61071;51.618;19.388;2022-10-13T04:03:58;39.65;;;19.85;;
72926;SDS011;61071;51.618;19.388;2022-10-13T04:06:26;41.97;;;18.80;;
72926;SDS011;61071;51.618;19.388;2022-10-13T04:08:53;40.67;;;18.38;;
72926;SDS011;61071;51.618;19.388;2022-10-13T04:11:19;40.53;;;18.35;;
72926;SDS011;61071;51.618;19.388;2022-10-13T04:13:46;44.03;;;17.98;;
72926;SDS011;61071;51.618;19.388;2022-10-13T04:16:19;34.28;;;18.80;;
72926;SDS011;61071;51.618;19.388;2022-10-13T04:18:57;38.97;;;18.65;;
72926;SDS011;61071;51.618;19.388;2022-10-13T04:21:27;47.47;;;18.55;;
72926;SDS011;61071;51.618;19.388;2022-10-13T04:23:55;42.42;;;21.58;;
72926;SDS011;61071;51.618;19.388;2022-10-13T04:26:23;40.70;;;20.65;;
72926;SDS011;61071;51.618;19.388;2022-10-13T04:28:52;50.08;;;22.80;;
72926;SDS011;61071;51.618;19.388;2022-10-13T04:31:20;50.05;;;20.48;;
72926;SDS011;61071;51.618;19.388;2022-10-13T04:33:48;39.70;;;19.58;;
72926;SDS011;61071;51.618;19.388;2022-10-13T04:36:15;41.33;;;19.73;;
72926;SDS011;61071;51.618;19.388;2022-10-13T04:38:42;47.70;;;23.30;;
72926;SDS011;61071;51.618;19.388;2022-10-13T04:41:09;50.85;;;24.52;;
72926;SDS011;61071;51.618;19.388;2022-10-13T04:43:36;57.78;;;25.83;;
72926;SDS011;61071;51.618;19.388;2022-10-13T04:46:06;49.58;;;25.38;;
72926;SDS011;61071;51.618;19.388;2022-10-13T04:48:59;64.93;;;25.05;;
72926;SDS011;61071;51.618;19.388;2022-10-13T04:51:25;51.53;;;24.60;;
72926;SDS011;61071;51.618;19.388;2022-10-13T04:53:58;55.35;;;25.70;;
72926;SDS011;61071;51.618;19.388;2022-10-13T04:56:26;60.45;;;28.38;;
72926;SDS011;61071;51.618;19.388;2022-10-13T04:58:52;58.42;;;26.02;;
72926;SDS011;61071;51.618;19.388;2022-10-13T05:01:19;54.53;;;26.25;;
72926;SDS011;61071;51.618;19.388;2022-10-13T05:03:49;62.80;;;28.48;;
72926;SDS011;61071;51.618;19.388;2022-10-13T05:06:25;49.85;;;24.48;;
72926;SDS011;61071;51.618;19.388;2022-10-13T05:08:59;62.97;;;26.25;;
72926;SDS011;61071;51.618;19.388;2022-10-13T05:11:25;57.85;;;26.83;;
72926;SDS011;61071;51.618;19.388;2022-10-13T05:13:55;52.95;;;24.10;;
72926;SDS011;61071;51.618;19.388;2022-10-13T05:16:22;51.50;;;25.48;;
72926;SDS011;61071;51.618;19.388;2022-10-13T05:18:48;50.53;;;24.83;;
72926;SDS011;61071;51.618;19.388;2022-10-13T05:21:18;57.05;;;27.33;;
72926;SDS011;61071;51.618;19.388;2022-10-13T05:23:46;55.97;;;25.80;;
72926;SDS011;61071;51.618;19.388;2022-10-13T05:26:13;51.88;;;23.60;;
72926;SDS011;61071;51.618;19.388;2022-10-13T05:28:41;60.15;;;24.85;;
72926;SDS011;61071;51.618;19.388;2022-10-13T05:31:18;69.28;;;27.98;;
72926;SDS011;61071;51.618;19.388;2022-10-13T05:33:46;60.53;;;25.83;;
72926;SDS011;61071;51.618;19.388;2022-10-13T05:36:18;55.92;;;23.35;;
72926;SDS011;61071;51.618;19.388;2022-10-13T05:38:55;70.80;;;30.65;;
72926;SDS011;61071;51.618;19.388;2022-10-13T05:41:24;60.45;;;28.80;;
72926;SDS011;61071;51.618;19.388;2022-10-13T05:44:01;71.68;;;29.98;;
72926;SDS011;61071;51.618;19.388;2022-10-13T05:46:32;63.83;;;29.88;;
72926;SDS011;61071;51.618;19.388;2022-10-13T05:48:58;63.42;;;26.70;;
72926;SDS011;61071;51.618;19.388;2022-10-13T05:51:29;52.15;;;21.95;;
72926;SDS011;61071;51.618;19.388;2022-10-13T05:54:03;51.40;;;25.00;;
72926;SDS011;61071;51.618;19.388;2022-10-13T05:56:41;46.53;;;21.77;;
72926;SDS011;61071;51.618;19.388;2022-10-13T05:59:17;54.78;;;21.58;;
72926;SDS011;61071;51.618;19.388;2022-10-13T06:01:45;51.67;;;25.52;;
72926;SDS011;61071;51.618;19.388;2022-10-13T06:04:21;48.13;;;25.30;;
72926;SDS011;61071;51.618;19.388;2022-10-13T06:06:59;65.40;;;27.10;;
72926;SDS011;61071;51.618;19.388;2022-10-13T06:09:26;54.75;;;26.10;;
72926;SDS011;61071;51.618;19.388;2022-10-13T06:12:01;51.90;;;24.80;;
72926;SDS011;61071;51.618;19.388;2022-10-13T06:14:29;49.97;;;25.60;;
72926;SDS011;61071;51.618;19.388;2022-10-13T06:16:54;53.45;;;26.67;;
72926;SDS011;61071;51.618;19.388;2022-10-13T06:19:20;75.22;;;29.58;;
72926;SDS011;61071;51.618;19.388;2022-10-13T06:21:46;50.72;;;26.48;;
72926;SDS011;61071;51.618;19.388;2022-10-13T06:24:11;52.88;;;25.23;;
72926;SDS011;61071;51.618;19.388;2022-10-13T06:26:37;52.00;;;27.92;;
72926;SDS011;61071;51.618;19.388;2022-10-13T06:29:03;52.78;;;25.33;;
72926;SDS011;61071;51.618;19.388;2022-10-13T06:31:28;49.95;;;23.65;;
72926;SDS011;61071;51.618;19.388;2022-10-13T06:33:54;22.48;;;9.32;;
72926;SDS011;61071;51.618;19.388;2022-10-13T06:36:20;21.15;;;8.50;;
72926;SDS011;61071;51.618;19.388;2022-10-13T06:38:46;21.77;;;8.77;;
72926;SDS011;61071;51.618;19.388;2022-10-13T06:41:11;28.17;;;11.50;;
72926;SDS011;61071;51.618;19.388;2022-10-13T06:43:38;20.75;;;10.30;;
72926;SDS011;61071;51.618;19.388;2022-10-13T06:46:05;18.50;;;8.18;;
72926;SDS011;61071;51.618;19.388;2022-10-13T06:48:32;27.05;;;8.30;;
72926;SDS011;61071;51.618;19.388;2022-10-13T06:51:01;21.85;;;8.10;;
72926;SDS011;61071;51.618;19.388;2022-10-13T06:53:34;23.35;;;8.38;;
72926;SDS011;61071;51.618;19.388;2022-10-13T06:56:00;23.10;;;8.27;;
72926;SDS011;61071;51.618;19.388;2022-10-13T06:58:29;20.80;;;8.25;;
72926;SDS011;61071;51.618;19.388;2022-10-13T07:00:55;20.00;;;8.27;;
72926;SDS011;61071;51.618;19.388;2022-10-13T07:03:22;22.02;;;9.00;;
72926;SDS011;61071;51.618;19.388;2022-10-13T07:05:49;22.17;;;8.57;;
72926;SDS011;61071;51.618;19.388;2022-10-13T07:08:15;21.48;;;8.93;;
72926;SDS011;61071;51.618;19.388;2022-10-13T07:10:42;18.88;;;7.82;;
72926;SDS011;61071;51.618;19.388;2022-10-13T07:13:08;20.67;;;7.93;;
72926;SDS011;61071;51.618;19.388;2022-10-13T07:15:37;19.58;;;8.00;;
72926;SDS011;61071;51.618;19.388;2022-10-13T07:18:04;17.95;;;7.47;;
72926;SDS011;61071;51.618;19.388;2022-10-13T07:20:30;25.38;;;7.72;;
72926;SDS011;61071;51.618;19.388;2022-10-13T07:22:56;16.27;;;6.97;;
72926;SDS011;61071;51.618;19.388;2022-10-13T07:25:22;18.13;;;7.10;;
72926;SDS011;61071;51.618;19.388;2022-10-13T07:27:47;27.40;;;6.95;;
72926;SDS011;61071;51.618;19.388;2022-10-13T07:30:14;21.73;;;6.65;;
72926;SDS011;61071;51.618;19.388;2022-10-13T07:32:39;21.83;;;7.30;;
72926;SDS011;61071;51.618;19.388;2022-10-13T07:35:07;17.67;;;7.03;;
72926;SDS011;61071;51.618;19.388;2022-10-13T07:37:34;17.27;;;5.97;;
72926;SDS011;61071;51.618;19.388;2022-10-13T07:40:00;17.23;;;6.72;;
72926;SDS011;61071;51.618;19.388;2022-10-13T07:42:28;14.43;;;6.63;;
72926;SDS011;61071;51.618;19.388;2022-10-13T07:44:53;17.30;;;7.15;;
72926;SDS011;61071;51.618;19.388;2022-10-13T07:47:19;15.77;;;6.63;;
72926;SDS011;61071;51.618;19.388;2022-10-13T07:49:44;17.83;;;6.85;;
72926;SDS011;61071;51.618;19.388;2022-10-13T07:52:10;18.38;;;6.68;;
72926;SDS011;61071;51.618;19.388;2022-10-13T07:54:36;15.18;;;6.78;;
72926;SDS011;61071;51.618;19.388;2022-10-13T07:57:01;21.85;;;6.75;;
72926;SDS011;61071;51.618;19.388;2022-10-13T07:59:27;21.48;;;8.52;;
72926;SDS011;61071;51.618;19.388;2022-10-13T08:01:53;14.88;;;6.45;;
72926;SDS011;61071;51.618;19.388;2022-10-13T08:04:19;15.75;;;6.63;;
72926;SDS011;61071;51.618;19.388;2022-10-13T08:06:44;19.25;;;6.88;;
72926;SDS011;61071;51.618;19.388;2022-10-13T08:09:11;12.68;;;5.93;;
72926;SDS011;61071;51.618;19.388;2022-10-13T08:11:36;15.02;;;6.55;;
72926;SDS011;61071;51.618;19.388;2022-10-13T08:14:02;17.50;;;6.38;;
72926;SDS011;61071;51.618;19.388;2022-10-13T08:16:28;21.30;;;6.82;;
72926;SDS011;61071;51.618;19.388;2022-10-13T08:18:59;17.95;;;7.07;;
72926;SDS011;61071;51.618;19.388;2022-10-13T08:21:25;20.70;;;7.20;;
72926;SDS011;61071;51.618;19.388;2022-10-13T08:23:53;19.92;;;7.15;;
72926;SDS011;61071;51.618;19.388;2022-10-13T08:26:19;20.40;;;6.60;;
72926;SDS011;61071;51.618;19.388;2022-10-13T08:28:49;15.63;;;5.95;;
72926;SDS011;61071;51.618;19.388;2022-10-13T08:31:16;21.45;;;6.05;;
72926;SDS011;61071;51.618;19.388;2022-10-13T08:33:42;16.33;;;6.63;;
72926;SDS011;61071;51.618;19.388;2022-10-13T08:36:11;16.90;;;6.05;;
72926;SDS011;61071;51.618;19.388;2022-10-13T08:38:41;20.65;;;6.38;;
72926;SDS011;61071;51.618;19.388;2022-10-13T08:41:14;13.20;;;5.63;;
72926;SDS011;61071;51.618;19.388;2022-10-13T08:43:48;16.02;;;6.10;;
72926;SDS011;61071;51.618;19.388;2022-10-13T08:46:24;13.10;;;5.30;;
72926;SDS011;61071;51.618;19.388;2022-10-13T08:48:54;14.32;;;5.40;;
72926;SDS011;61071;51.618;19.388;2022-10-13T08:51:22;18.45;;;6.88;;
72926;SDS011;61071;51.618;19.388;2022-10-13T08:53:48;18.50;;;5.60;;
72926;SDS011;61071;51.618;19.388;2022-10-13T08:56:22;18.00;;;6.55;;
72926;SDS011;61071;51.618;19.388;2022-10-13T08:58:55;17.13;;;6.82;;
72926;SDS011;61071;51.618;19.388;2022-10-13T09:09:35;12.60;;;4.47;;
72926;SDS011;61071;51.618;19.388;2022-10-13T09:12:02;11.40;;;4.53;;
72926;SDS011;61071;51.618;19.388;2022-10-13T09:14:33;15.27;;;4.57;;
72926;SDS011;61071;51.618;19.388;2022-10-13T09:19:58;13.18;;;4.57;;
72926;SDS011;61071;51.618;19.388;2022-10-13T09:22:42;16.88;;;5.50;;
72926;SDS011;61071;51.618;19.388;2022-10-13T09:25:20;14.80;;;4.95;;
72926;SDS011;61071;51.618;19.388;2022-10-13T09:35:39;11.70;;;4.53;;
72926;SDS011;61071;51.618;19.388;2022-10-13T09:38:14;12.40;;;4.97;;
72926;SDS011;61071;51.618;19.388;2022-10-13T09:48:50;14.63;;;4.28;;
72926;SDS011;61071;51.618;19.388;2022-10-13T09:54:02;14.95;;;4.70;;
72926;SDS011;61071;51.618;19.388;2022-10-13T09:56:38;13.32;;;4.22;;
72926;SDS011;61071;51.618;19.388;2022-10-13T10:01:52;15.50;;;4.78;;
72926;SDS011;61071;51.618;19.388;2022-10-13T10:04:29;11.25;;;4.45;;
72926;SDS011;61071;51.618;19.388;2022-10-13T10:07:09;13.15;;;4.43;;
72926;SDS011;61071;51.618;19.388;2022-10-13T10:09:43;11.98;;;4.03;;
72926;SDS011;61071;51.618;19.388;2022-10-13T10:12:20;13.48;;;4.78;;
72926;SDS011;61071;51.618;19.388;2022-10-13T10:14:51;13.35;;;4.57;;
72926;SDS011;61071;51.618;19.388;2022-10-13T10:17:28;14.80;;;4.82;;
72926;SDS011;61071;51.618;19.388;2022-10-13T10:22:48;12.05;;;4.40;;
72926;SDS011;61071;51.618;19.388;2022-10-13T10:37:04;13.05;;;4.72;;
72926;SDS011;61071;51.618;19.388;2022-10-13T10:46:00;13.73;;;5.20;;
72926;SDS011;61071;51.618;19.388;2022-10-13T10:48:28;11.65;;;4.68;;
72926;SDS011;61071;51.618;19.388;2022-10-13T10:51:06;13.80;;;4.55;;
72926;SDS011;61071;51.618;19.388;2022-10-13T10:56:42;12.75;;;4.63;;
72926;SDS011;61071;51.618;19.388;2022-10-13T11:08:27;14.55;;;5.18;;
72926;SDS011;61071;51.618;19.388;2022-10-13T11:13:56;12.38;;;5.38;;
72926;SDS011;61071;51.618;19.388;2022-10-13T11:43:27;14.07;;;5.13;;
72926;SDS011;61071;51.618;19.388;2022-10-13T11:52:18;14.30;;;5.57;;
72926;SDS011;61071;51.618;19.388;2022-10-13T11:55:13;10.20;;;6.00;;
72926;SDS011;61071;51.618;19.388;2022-10-13T11:57:51;12.02;;;5.95;;
72926;SDS011;61071;51.618;19.388;2022-10-13T12:03:29;18.73;;;6.35;;
72926;SDS011;61071;51.618;19.388;2022-10-13T12:06:02;10.85;;;5.18;;
72926;SDS011;61071;51.618;19.388;2022-10-13T12:08:32;11.93;;;5.75;;
72926;SDS011;61071;51.618;19.388;2022-10-13T12:11:00;18.35;;;6.65;;
72926;SDS011;61071;51.618;19.388;2022-10-13T12:13:31;11.85;;;5.82;;
72926;SDS011;61071;51.618;19.388;2022-10-13T12:16:00;16.55;;;5.60;;
72926;SDS011;61071;51.618;19.388;2022-10-13T12:18:31;12.98;;;5.47;;
72926;SDS011;61071;51.618;19.388;2022-10-13T12:23:41;17.30;;;5.30;;
72926;SDS011;61071;51.618;19.388;2022-10-13T12:26:12;17.33;;;6.00;;
72926;SDS011;61071;51.618;19.388;2022-10-13T12:29:00;14.52;;;5.88;;
72926;SDS011;61071;51.618;19.388;2022-10-13T12:34:24;10.90;;;5.20;;
72926;SDS011;61071;51.618;19.388;2022-10-13T12:39:58;9.93;;;5.25;;
72926;SDS011;61071;51.618;19.388;2022-10-13T12:42:32;12.27;;;5.28;;
72926;SDS011;61071;51.618;19.388;2022-10-13T12:45:02;12.77;;;4.95;;
72926;SDS011;61071;51.618;19.388;2022-10-13T12:53:12;12.93;;;5.28;;
72926;SDS011;61071;51.618;19.388;2022-10-13T12:55:52;16.35;;;5.72;;
72926;SDS011;61071;51.618;19.388;2022-10-13T13:01:05;13.85;;;5.22;;
72926;SDS011;61071;51.618;19.388;2022-10-13T13:03:34;10.13;;;5.13;;
72926;SDS011;61071;51.618;19.388;2022-10-13T13:08:45;18.60;;;5.38;;
72926;SDS011;61071;51.618;19.388;2022-10-13T13:17:05;16.80;;;5.97;;
72926;SDS011;61071;51.618;19.388;2022-10-13T13:19:39;10.98;;;5.05;;
72926;SDS011;61071;51.618;19.388;2022-10-13T13:22:08;15.70;;;5.78;;
72926;SDS011;61071;51.618;19.388;2022-10-13T13:24:33;10.70;;;5.25;;
72926;SDS011;61071;51.618;19.388;2022-10-13T13:27:22;16.50;;;5.28;;
72926;SDS011;61071;51.618;19.388;2022-10-13T13:29:54;13.40;;;5.43;;
72926;SDS011;61071;51.618;19.388;2022-10-13T13:32:21;13.15;;;5.15;;
72926;SDS011;61071;51.618;19.388;2022-10-13T13:34:49;11.68;;;4.85;;
72926;SDS011;61071;51.618;19.388;2022-10-13T13:37:37;10.85;;;5.38;;
72926;SDS011;61071;51.618;19.388;2022-10-13T13:40:23;12.15;;;5.07;;
72926;SDS011;61071;51.618;19.388;2022-10-13T13:42:52;12.52;;;5.65;;
72926;SDS011;61071;51.618;19.388;2022-10-13T13:45:19;14.80;;;5.75;;
72926;SDS011;61071;51.618;19.388;2022-10-13T13:47:49;12.25;;;5.45;;
72926;SDS011;61071;51.618;19.388;2022-10-13T13:52:49;19.63;;;5.90;;
72926;SDS011;61071;51.618;19.388;2022-10-13T13:55:15;11.98;;;5.82;;
72926;SDS011;61071;51.618;19.388;2022-10-13T13:57:41;15.48;;;6.05;;
72926;SDS011;61071;51.618;19.388;2022-10-13T14:00:11;15.20;;;6.13;;
72926;SDS011;61071;51.618;19.388;2022-10-13T14:02:39;14.27;;;5.70;;
72926;SDS011;61071;51.618;19.388;2022-10-13T14:05:07;12.98;;;5.80;;
72926;SDS011;61071;51.618;19.388;2022-10-13T14:07:33;15.07;;;6.35;;
72926;SDS011;61071;51.618;19.388;2022-10-13T14:09:59;16.98;;;5.75;;
72926;SDS011;61071;51.618;19.388;2022-10-13T14:12:27;17.98;;;6.22;;
72926;SDS011;61071;51.618;19.388;2022-10-13T14:14:54;16.27;;;6.13;;
72926;SDS011;61071;51.618;19.388;2022-10-13T14:17:21;12.45;;;6.10;;
72926;SDS011;61071;51.618;19.388;2022-10-13T14:19:47;11.88;;;5.68;;
72926;SDS011;61071;51.618;19.388;2022-10-13T14:22:13;12.55;;;6.25;;
72926;SDS011;61071;51.618;19.388;2022-10-13T14:24:38;15.45;;;6.30;;
72926;SDS011;61071;51.618;19.388;2022-10-13T14:27:04;13.65;;;5.85;;
72926;SDS011;61071;51.618;19.388;2022-10-13T14:29:33;15.13;;;7.30;;
72926;SDS011;61071;51.618;19.388;2022-10-13T14:31:59;12.90;;;6.30;;
72926;SDS011;61071;51.618;19.388;2022-10-13T14:34:26;17.13;;;6.47;;
72926;SDS011;61071;51.618;19.388;2022-10-13T14:36:52;14.45;;;6.38;;
72926;SDS011;61071;51.618;19.388;2022-10-13T14:39:17;12.57;;;6.20;;
72926;SDS011;61071;51.618;19.388;2022-10-13T14:41:43;13.68;;;6.25;;
72926;SDS011;61071;51.618;19.388;2022-10-13T14:44:12;16.35;;;7.30;;
72926;SDS011;61071;51.618;19.388;2022-10-13T14:46:39;14.07;;;7.18;;
72926;SDS011;61071;51.618;19.388;2022-10-13T14:49:05;14.63;;;6.75;;
72926;SDS011;61071;51.618;19.388;2022-10-13T14:51:31;20.27;;;7.78;;
72926;SDS011;61071;51.618;19.388;2022-10-13T14:53:57;13.90;;;6.55;;
72926;SDS011;61071;51.618;19.388;2022-10-13T14:56:26;15.70;;;6.85;;
72926;SDS011;61071;51.618;19.388;2022-10-13T14:58:58;15.65;;;7.75;;
72926;SDS011;61071;51.618;19.388;2022-10-13T15:01:27;14.98;;;6.90;;
72926;SDS011;61071;51.618;19.388;2022-10-13T15:03:54;17.42;;;6.90;;
72926;SDS011;61071;51.618;19.388;2022-10-13T15:06:21;16.45;;;6.50;;
72926;SDS011;61071;51.618;19.388;2022-10-13T15:11:37;12.77;;;7.45;;
72926;SDS011;61071;51.618;19.388;2022-10-13T15:14:03;19.23;;;7.57;;
72926;SDS011;61071;51.618;19.388;2022-10-13T15:16:29;13.20;;;7.22;;
72926;SDS011;61071;51.618;19.388;2022-10-13T15:19:01;15.63;;;6.78;;
72926;SDS011;61071;51.618;19.388;2022-10-13T15:21:27;14.88;;;7.22;;
72926;SDS011;61071;51.618;19.388;2022-10-13T15:23:54;16.95;;;7.25;;
72926;SDS011;61071;51.618;19.388;2022-10-13T15:26:20;15.75;;;7.95;;
72926;SDS011;61071;51.618;19.388;2022-10-13T15:28:47;16.75;;;7.00;;
72926;SDS011;61071;51.618;19.388;2022-10-13T15:31:17;18.95;;;7.30;;
72926;SDS011;61071;51.618;19.388;2022-10-13T15:33:45;16.38;;;7.75;;
72926;SDS011;61071;51.618;19.388;2022-10-13T15:36:13;15.23;;;7.43;;
72926;SDS011;61071;51.618;19.388;2022-10-13T15:38:39;17.65;;;7.45;;
72926;SDS011;61071;51.618;19.388;2022-10-13T15:41:05;20.67;;;8.35;;
72926;SDS011;61071;51.618;19.388;2022-10-13T15:43:32;21.65;;;7.72;;
72926;SDS011;61071;51.618;19.388;2022-10-13T15:45:59;19.95;;;7.88;;
72926;SDS011;61071;51.618;19.388;2022-10-13T15:48:31;16.70;;;7.65;;
72926;SDS011;61071;51.618;19.388;2022-10-13T15:50:57;12.48;;;7.15;;
72926;SDS011;61071;51.618;19.388;2022-10-13T15:53:23;17.88;;;8.27;;
72926;SDS011;61071;51.618;19.388;2022-10-13T15:55:49;17.73;;;8.80;;
72926;SDS011;61071;51.618;19.388;2022-10-13T15:58:15;16.52;;;7.75;;
72926;SDS011;61071;51.618;19.388;2022-10-13T16:00:42;17.95;;;8.18;;
72926;SDS011;61071;51.618;19.388;2022-10-13T16:03:14;15.48;;;7.60;;
72926;SDS011;61071;51.618;19.388;2022-10-13T16:05:42;16.55;;;8.13;;
72926;SDS011;61071;51.618;19.388;2022-10-13T16:08:10;23.30;;;9.32;;
72926;SDS011;61071;51.618;19.388;2022-10-13T16:10:38;23.02;;;9.00;;
72926;SDS011;61071;51.618;19.388;2022-10-13T16:13:08;19.55;;;8.60;;
72926;SDS011;61071;51.618;19.388;2022-10-13T16:15:37;20.30;;;9.07;;
72926;SDS011;61071;51.618;19.388;2022-10-13T16:18:03;18.20;;;8.85;;
72926;SDS011;61071;51.618;19.388;2022-10-13T16:20:29;16.60;;;8.27;;
72926;SDS011;61071;51.618;19.388;2022-10-13T16:22:58;18.70;;;8.73;;
72926;SDS011;61071;51.618;19.388;2022-10-13T16:25:25;19.90;;;9.27;;
72926;SDS011;61071;51.618;19.388;2022-10-13T16:27:50;19.90;;;9.25;;
72926;SDS011;61071;51.618;19.388;2022-10-13T16:30:16;21.92;;;9.77;;
72926;SDS011;61071;51.618;19.388;2022-10-13T16:32:42;19.35;;;10.13;;
72926;SDS011;61071;51.618;19.388;2022-10-13T16:35:07;23.42;;;9.23;;
72926;SDS011;61071;51.618;19.388;2022-10-13T16:37:33;20.02;;;9.70;;
72926;SDS011;61071;51.618;19.388;2022-10-13T16:39:59;20.70;;;10.10;;
72926;SDS011;61071;51.618;19.388;2022-10-13T16:42:25;21.48;;;9.77;;
72926;SDS011;61071;51.618;19.388;2022-10-13T16:44:51;23.10;;;9.68;;
72926;SDS011;61071;51.618;19.388;2022-10-13T16:47:17;23.27;;;10.63;;
72926;SDS011;61071;51.618;19.388;2022-10-13T16:49:42;19.35;;;11.00;;
72926;SDS011;61071;51.618;19.388;2022-10-13T16:52:08;21.67;;;11.27;;
72926;SDS011;61071;51.618;19.388;2022-10-13T16:54:34;23.45;;;10.98;;
72926;SDS011;61071;51.618;19.388;2022-10-13T16:57:00;19.23;;;11.13;;
72926;SDS011;61071;51.618;19.388;2022-10-13T16:59:26;23.67;;;11.48;;
72926;SDS011;61071;51.618;19.388;2022-10-13T17:01:52;27.23;;;12.20;;
72926;SDS011;61071;51.618;19.388;2022-10-13T17:04:19;25.55;;;12.68;;
72926;SDS011;61071;51.618;19.388;2022-10-13T17:06:44;26.30;;;11.60;;
72926;SDS011;61071;51.618;19.388;2022-10-13T17:09:10;26.45;;;12.65;;
72926;SDS011;61071;51.618;19.388;2022-10-13T17:11:36;23.23;;;11.55;;
72926;SDS011;61071;51.618;19.388;2022-10-13T17:14:02;24.20;;;13.18;;